This is the latest recevied weather packets stored in our database for station/object HS5GDX-4. If no packets are shown the sender has not sent any weather packets the latest 1 day(s).
| Time | Temp. | Humidity | Pressure | Rain* | Wind** | Luminosity | Snow |
|---|---|---|---|---|---|---|---|
| 1778053601 | 37.22° C | 43% | 963 hPa | - | - | 0 W/m² | - |
| 1778053537 | 37.22° C | 43% | 963 hPa | - | - | 0 W/m² | - |
| 1778050750 | 39.44° C | 31% | 964 hPa | - | - | 0 W/m² | - |
| 1778049821 | 39.44° C | 31% | 964 hPa | - | - | 0 W/m² | - |
| 1778048892 | 38.33° C | 33% | 965 hPa | - | - | 0 W/m² | - |
| 1778046107 | 38.33° C | 34% | 966 hPa | - | - | 0 W/m² | - |
| 1778045179 | 37.22° C | 37% | 966 hPa | - | - | 0 W/m² | - |
| 1778043322 | 37.22° C | 37% | 967 hPa | - | - | 0 W/m² | - |
| 1778042392 | 37.22° C | 37% | 967 hPa | - | - | 0 W/m² | - |
| 1778041463 | 37.22° C | 37% | 967 hPa | - | - | 0 W/m² | - |
| 1778040534 | 36.11° C | 39% | 967 hPa | - | - | 0 W/m² | - |
| 1778038677 | 36.11° C | 40% | 968 hPa | - | - | 0 W/m² | - |
| 1778037748 | 35.56° C | 40% | 968 hPa | - | - | 0 W/m² | - |
| 1778036819 | 35.56° C | 41% | 968 hPa | - | - | 0 W/m² | - |
| 1778035889 | 34.44° C | 42% | 968 hPa | - | - | 0 W/m² | - |
| 1778034961 | 34.44° C | 42% | 968 hPa | - | - | 0 W/m² | - |
| 1778034033 | 33.89° C | 43% | 968 hPa | - | - | 0 W/m² | - |
| 1778033104 | 33.89° C | 44% | 968 hPa | - | - | 0 W/m² | - |
| 1778030317 | 34.44° C | 44% | 968 hPa | - | - | 0 W/m² | - |
| 1778029387 | 33.89° C | 44% | 968 hPa | - | - | 0 W/m² | - |
| 1778028458 | 33.89° C | 45% | 967 hPa | - | - | 0 W/m² | - |
| 1778027530 | 33.89° C | 44% | 967 hPa | - | - | 0 W/m² | - |
| 1778025672 | 33.33° C | 45% | 967 hPa | - | - | 0 W/m² | - |
| 1778021957 | 33.33° C | 44% | 967 hPa | - | - | 0 W/m² | - |
| 1778019171 | 33.89° C | 44% | 966 hPa | - | - | 0 W/m² | - |
* Rain since midnight (hover to see other rain measurements)
** Current wind speed in m/s (hover to see current wind gust speed)